createdAt,value
2016-04-23T00:00:04.341Z,13.81
2016-04-23T00:01:04.360Z,13.79
2016-04-23T00:02:04.394Z,13.81
2016-04-23T00:03:04.396Z,13.77
2016-04-23T00:04:04.446Z,13.74
2016-04-23T00:05:04.449Z,13.78
2016-04-23T00:06:04.468Z,13.75
2016-04-23T00:07:04.501Z,13.81
2016-04-23T00:08:04.519Z,13.77
2016-04-23T00:09:04.521Z,13.77
2016-04-23T00:10:04.557Z,13.75
2016-04-23T00:11:04.574Z,13.75
2016-04-23T00:12:04.624Z,13.7
2016-04-23T00:13:04.626Z,13.77
2016-04-23T00:14:04.645Z,13.7
2016-04-23T00:15:04.663Z,13.72
2016-04-23T00:16:04.681Z,13.68
2016-04-23T00:17:04.731Z,13.67
2016-04-23T00:18:04.718Z,13.67
2016-04-23T00:19:04.753Z,13.62
2016-04-23T00:20:11.598Z,13.6
2016-04-23T00:21:04.789Z,13.65
2016-04-23T00:22:04.823Z,13.6
2016-04-23T00:23:04.841Z,13.63
2016-04-23T00:24:04.859Z,13.65
2016-04-23T00:25:04.878Z,13.57
2016-04-23T00:26:04.896Z,13.59
2016-04-23T00:27:04.930Z,13.6
2016-04-23T00:28:04.948Z,13.53
2016-04-23T00:29:04.966Z,13.56
2016-04-23T00:30:05.000Z,13.57
2016-04-23T00:31:05.003Z,13.63
2016-04-23T00:32:05.069Z,13.54
2016-04-23T00:33:05.055Z,13.47
2016-04-23T00:34:05.074Z,13.54
2016-04-23T00:35:05.092Z,13.37
2016-04-23T00:36:05.126Z,13.39
2016-04-23T00:37:05.144Z,13.47
2016-04-23T00:38:05.147Z,13.47
2016-04-23T00:39:05.165Z,13.46
2016-04-23T00:40:05.184Z,13.41
2016-04-23T00:41:05.218Z,13.39
2016-04-23T00:42:05.235Z,13.46
2016-04-23T00:43:05.254Z,13.39
2016-04-23T00:44:05.273Z,13.35
2016-04-23T00:45:05.307Z,13.3
2016-04-23T00:46:05.309Z,13.28
2016-04-23T00:47:05.343Z,13.31
2016-04-23T00:48:05.362Z,13.35
2016-04-23T00:49:05.379Z,13.35
2016-04-23T00:50:05.398Z,13.42
2016-04-23T00:51:05.431Z,13.28
2016-04-23T00:52:05.451Z,13.31
2016-04-23T00:53:05.484Z,13.37
2016-04-23T00:54:05.487Z,13.33
2016-04-23T00:55:05.536Z,13.31
2016-04-23T00:56:05.523Z,13.33
2016-04-23T00:57:05.573Z,13.38
2016-04-23T00:58:05.575Z,13.19
2016-04-23T00:59:05.594Z,13.27
2016-04-23T01:00:05.628Z,13.33
2016-04-23T01:01:05.631Z,13.3
2016-04-23T01:02:05.664Z,13.22
2016-04-23T01:03:05.666Z,13.19
2016-04-23T01:04:05.701Z,13.2
2016-04-23T01:05:05.752Z,13.16
2016-04-23T01:06:05.754Z,13.2
2016-04-23T01:07:05.771Z,13.18
2016-04-23T01:08:05.806Z,13.22
2016-04-23T01:09:05.808Z,13.13
2016-04-23T01:10:05.843Z,13.16
2016-04-23T01:11:05.860Z,13.18
2016-04-23T01:12:05.880Z,13.16
2016-04-23T01:13:05.898Z,13.19
2016-04-23T01:14:05.915Z,13.18
2016-04-23T01:15:05.934Z,13.18
2016-04-23T01:16:05.951Z,13.12
2016-04-23T01:17:05.971Z,13.08
2016-04-23T01:18:05.989Z,13.04
2016-04-23T01:19:06.039Z,13.01
2016-04-23T01:20:06.042Z,13.11
2016-04-23T01:21:06.060Z,13.13
2016-04-23T01:22:06.078Z,13.09
2016-04-23T01:23:06.111Z,13.08
2016-04-23T01:24:06.131Z,13.05
2016-04-23T01:25:06.148Z,13.05
2016-04-23T01:26:06.183Z,13.11
2016-04-23T01:27:06.200Z,13.09
2016-04-23T01:28:06.219Z,13.04
2016-04-23T01:29:06.222Z,13
2016-04-23T01:30:06.286Z,12.95
2016-04-23T01:31:06.289Z,12.97
2016-04-23T01:32:06.292Z,12.98
2016-04-23T01:33:06.327Z,12.95
2016-04-23T01:34:06.329Z,13.01
2016-04-23T01:35:06.363Z,12.97
2016-04-23T01:36:06.381Z,12.95
2016-04-23T01:37:06.399Z,12.93
2016-04-23T01:38:06.418Z,12.94
2016-04-23T01:39:06.436Z,12.91
2016-04-23T01:40:06.470Z,12.91
2016-04-23T01:41:06.473Z,12.93
2016-04-23T01:42:06.507Z,12.97
2016-04-23T01:43:06.540Z,12.95
2016-04-23T01:44:06.543Z,12.93
2016-04-23T01:45:06.562Z,12.91
2016-04-23T01:46:06.580Z,12.86
2016-04-23T01:47:06.614Z,12.82
2016-04-23T01:48:06.632Z,12.82
2016-04-23T01:49:06.651Z,12.82
2016-04-23T01:50:06.668Z,12.86
2016-04-23T01:51:06.703Z,12.79
2016-04-23T01:52:06.705Z,12.78
2016-04-23T01:53:06.724Z,12.82
2016-04-23T01:54:06.758Z,12.8
2016-04-23T01:55:06.775Z,12.78
2016-04-23T01:56:06.810Z,12.76
2016-04-23T01:57:06.812Z,12.76
2016-04-23T01:58:06.831Z,12.73
2016-04-23T01:59:06.849Z,12.7
2016-04-23T02:00:06.884Z,12.76
2016-04-23T02:01:06.917Z,12.73
2016-04-23T02:02:06.919Z,12.68
2016-04-23T02:03:06.938Z,12.7
2016-04-23T02:04:06.955Z,12.65
2016-04-23T02:05:07.006Z,12.7
2016-04-23T02:06:07.024Z,12.7
2016-04-23T02:07:07.027Z,12.64
2016-04-23T02:08:07.046Z,12.61
2016-04-23T02:09:07.064Z,12.64
2016-04-23T02:10:07.082Z,12.65
2016-04-23T02:11:07.115Z,12.65
2016-04-23T02:12:07.135Z,12.6
2016-04-23T02:13:07.152Z,12.65
2016-04-23T02:14:07.171Z,12.6
2016-04-23T02:15:07.204Z,12.64
2016-04-23T02:16:07.207Z,12.7
2016-04-23T02:17:07.241Z,12.64
2016-04-23T02:18:07.243Z,12.55
2016-04-23T02:19:07.278Z,12.65
2016-04-23T02:20:07.296Z,12.57
2016-04-23T02:21:07.315Z,12.57
2016-04-23T02:22:07.348Z,12.67
2016-04-23T02:23:07.345Z,12.54
2016-04-23T02:24:07.380Z,12.53
2016-04-23T02:25:07.397Z,12.53
2016-04-23T02:26:07.416Z,12.5
2016-04-23T02:27:07.449Z,12.46
2016-04-23T02:28:07.453Z,12.49
2016-04-23T02:29:07.486Z,12.46
2016-04-23T02:30:07.505Z,12.46
2016-04-23T02:31:07.524Z,12.46
2016-04-23T02:32:07.557Z,12.47
2016-04-23T02:33:07.575Z,12.42
2016-04-23T02:34:07.577Z,12.4
2016-04-23T02:35:07.612Z,12.4
2016-04-23T02:36:07.615Z,12.47
2016-04-23T02:37:07.649Z,12.45
2016-04-23T02:38:07.682Z,12.47
2016-04-23T02:39:07.685Z,12.43
2016-04-23T02:40:07.704Z,12.39
2016-04-23T02:41:07.721Z,12.45
2016-04-23T02:42:07.771Z,12.46
2016-04-23T02:43:07.774Z,12.43
2016-04-23T02:44:07.793Z,12.35
2016-04-23T02:45:07.811Z,12.47
2016-04-23T02:46:07.829Z,12.42
2016-04-23T02:47:07.863Z,12.32
2016-04-23T02:48:07.881Z,12.31
2016-04-23T02:49:07.900Z,12.39
2016-04-23T02:50:07.902Z,12.36
2016-04-23T02:51:07.937Z,12.39
2016-04-23T02:52:07.955Z,12.25
2016-04-23T02:53:07.972Z,12.31
2016-04-23T02:54:07.992Z,12.25
2016-04-23T02:55:08.009Z,12.25
2016-04-23T02:56:08.044Z,12.35
2016-04-23T02:57:08.093Z,12.25
2016-04-23T02:58:08.065Z,12.29
2016-04-23T02:59:08.099Z,12.29
2016-04-23T03:00:08.101Z,12.21
2016-04-23T03:01:08.135Z,12.28
2016-04-23T03:02:08.153Z,12.2
2016-04-23T03:03:08.172Z,12.25
2016-04-23T03:04:08.221Z,12.25
2016-04-23T03:05:08.302Z,12.25
2016-04-23T03:06:08.368Z,12.28
2016-04-23T03:07:08.245Z,12.22
2016-04-23T03:08:08.294Z,12.22
2016-04-23T03:09:08.297Z,12.2
2016-04-23T03:10:08.332Z,12.21
2016-04-23T03:11:08.334Z,12.12
2016-04-23T03:12:08.367Z,12.15
2016-04-23T03:13:08.371Z,12.15
2016-04-23T03:14:08.404Z,12.15
2016-04-23T03:15:08.422Z,12.15
2016-04-23T03:16:08.441Z,12.13
2016-04-23T03:17:08.459Z,12.13
2016-04-23T03:18:08.478Z,12.18
2016-04-23T03:19:08.496Z,12.15
2016-04-23T03:20:08.531Z,12.09
2016-04-23T03:21:08.533Z,12.13
2016-04-23T03:22:08.551Z,12.04
2016-04-23T03:23:08.569Z,12.04
2016-04-23T03:24:08.603Z,12.06
2016-04-23T03:25:08.621Z,12.07
2016-04-23T03:26:08.655Z,12.03
2016-04-23T03:27:08.675Z,12.04
2016-04-23T03:28:08.677Z,12.12
2016-04-23T03:29:07.961Z,12.03
2016-04-23T03:30:08.728Z,12.04
2016-04-23T03:31:08.747Z,12.06
2016-04-23T03:32:08.766Z,12.06
2016-04-23T03:33:08.768Z,12.04
2016-04-23T03:34:08.802Z,12.04
2016-04-23T03:35:08.821Z,11.97
2016-04-23T03:36:08.839Z,12.06
2016-04-23T03:37:08.857Z,12
2016-04-23T03:38:08.891Z,12.03
2016-04-23T03:39:08.910Z,12
2016-04-23T03:40:08.927Z,11.99
2016-04-23T03:41:08.945Z,12.02
2016-04-23T03:42:08.964Z,12
2016-04-23T03:43:08.983Z,11.88
2016-04-23T03:44:09.001Z,11.99
2016-04-23T03:45:09.051Z,11.86
2016-04-23T03:46:09.084Z,12
2016-04-23T03:47:09.071Z,11.81
2016-04-23T03:48:09.074Z,11.95
2016-04-23T03:49:09.108Z,11.87
2016-04-23T03:50:09.126Z,11.91
2016-04-23T03:51:09.160Z,11.9
2016-04-23T03:52:09.163Z,11.84
2016-04-23T03:53:09.181Z,11.87
2016-04-23T03:54:09.200Z,11.91
2016-04-23T03:55:09.233Z,11.87
2016-04-23T03:56:09.255Z,11.87
2016-04-23T03:57:09.274Z,11.7
2016-04-23T03:58:09.276Z,11.83
2016-04-23T03:59:09.311Z,11.83
2016-04-23T04:00:09.328Z,11.75
2016-04-23T04:01:09.332Z,11.88
2016-04-23T04:02:09.366Z,11.78
2016-04-23T04:03:09.384Z,11.75
2016-04-23T04:04:09.401Z,11.72
2016-04-23T04:05:09.436Z,11.69
2016-04-23T04:06:09.439Z,11.81
2016-04-23T04:07:09.473Z,11.84
2016-04-23T04:08:09.476Z,11.8
2016-04-23T04:09:09.494Z,11.78
2016-04-23T04:10:09.527Z,11.72
2016-04-23T04:11:09.546Z,11.8
2016-04-23T04:12:09.564Z,11.78
2016-04-23T04:13:09.583Z,11.77
2016-04-23T04:14:09.601Z,11.77
2016-04-23T04:15:09.619Z,11.78
2016-04-23T04:16:09.638Z,11.73
2016-04-23T04:17:09.687Z,11.72
2016-04-23T04:18:09.674Z,11.72
2016-04-23T04:19:09.708Z,11.8
2016-04-23T04:20:09.757Z,11.78
2016-04-23T04:21:09.744Z,11.78
2016-04-23T04:22:09.763Z,11.77
2016-04-23T04:23:09.782Z,11.72
2016-04-23T04:24:09.800Z,11.77
2016-04-23T04:25:09.818Z,11.75
2016-04-23T04:26:09.836Z,11.75
2016-04-23T04:27:09.870Z,11.69
2016-04-23T04:28:09.873Z,11.72
2016-04-23T04:29:09.907Z,11.77
2016-04-23T04:30:09.926Z,11.73
2016-04-23T04:31:09.944Z,11.73
2016-04-23T04:32:09.962Z,11.7
2016-04-23T04:33:09.980Z,11.66
2016-04-23T04:34:10.014Z,11.7
2016-04-23T04:35:10.017Z,11.77
2016-04-23T04:36:10.034Z,11.72
2016-04-23T04:37:10.053Z,11.8
2016-04-23T04:38:10.072Z,11.66
2016-04-23T04:39:10.106Z,11.75
2016-04-23T04:40:10.109Z,11.75
2016-04-23T04:41:10.142Z,11.75
2016-04-23T04:42:10.145Z,11.65
2016-04-23T04:43:10.194Z,11.7
2016-04-23T04:44:10.197Z,11.73
2016-04-23T04:45:10.231Z,11.68
2016-04-23T04:46:10.234Z,11.73
2016-04-23T04:47:10.253Z,11.69
2016-04-23T04:48:10.270Z,11.66
2016-04-23T04:49:10.305Z,11.72
2016-04-23T04:50:10.307Z,11.63
2016-04-23T04:51:10.341Z,11.72
2016-04-23T04:52:10.359Z,11.7
2016-04-23T04:53:10.377Z,11.63
2016-04-23T04:54:10.411Z,11.63
2016-04-23T04:55:10.414Z,11.73
2016-04-23T04:56:10.433Z,11.73
2016-04-23T04:57:10.451Z,11.77
2016-04-23T04:58:10.485Z,11.7
2016-04-23T04:59:10.503Z,11.75
2016-04-23T05:00:10.537Z,11.66
2016-04-23T05:01:10.524Z,11.8
2016-04-23T05:02:10.558Z,11.73
2016-04-23T05:03:10.561Z,11.75
2016-04-23T05:04:10.595Z,11.72
2016-04-23T05:05:10.629Z,11.73
2016-04-23T05:06:10.631Z,11.75
2016-04-23T05:07:10.651Z,11.73
2016-04-23T05:08:10.667Z,11.75
2016-04-23T05:09:09.936Z,11.72
2016-04-23T05:10:10.704Z,11.75
2016-04-23T05:11:10.739Z,11.7
2016-04-23T05:12:10.741Z,11.68
2016-04-23T05:13:10.759Z,11.66
2016-04-23T05:14:10.794Z,11.68
2016-04-23T05:15:10.812Z,11.63
2016-04-23T05:16:10.830Z,11.65
2016-04-23T05:17:10.833Z,11.6
2016-04-23T05:18:10.867Z,11.66
2016-04-23T05:19:10.901Z,11.66
2016-04-23T05:20:10.919Z,11.65
2016-04-23T05:21:10.922Z,11.73
2016-04-23T05:22:10.940Z,11.66
2016-04-23T05:23:10.974Z,11.6
2016-04-23T05:24:10.976Z,11.69
2016-04-23T05:25:11.010Z,11.73
2016-04-23T05:26:11.044Z,11.7
2016-04-23T05:27:11.047Z,11.75
2016-04-23T05:28:11.066Z,11.68
2016-04-23T05:29:11.099Z,11.69
2016-04-23T05:30:11.102Z,11.66
2016-04-23T05:31:11.120Z,11.68
2016-04-23T05:32:11.138Z,11.73
2016-04-23T05:33:11.157Z,11.63
2016-04-23T05:34:11.176Z,11.65
2016-04-23T05:35:11.209Z,11.72
2016-04-23T05:36:11.212Z,11.72
2016-04-23T05:37:11.231Z,11.72
2016-04-23T05:38:11.264Z,11.75
2016-04-23T05:39:11.282Z,11.7
2016-04-23T05:40:11.317Z,11.75
2016-04-23T05:41:11.335Z,11.62
2016-04-23T05:42:11.337Z,11.65
2016-04-23T05:43:11.372Z,11.66
2016-04-23T05:44:11.375Z,11.77
2016-04-23T05:45:11.392Z,11.72
2016-04-23T05:46:11.426Z,11.75
2016-04-23T05:47:11.444Z,11.75
2016-04-23T05:48:11.464Z,11.66
2016-04-23T05:49:11.481Z,11.73
2016-04-23T05:50:11.516Z,11.75
2016-04-23T05:51:11.519Z,11.7
2016-04-23T05:52:11.536Z,11.72
2016-04-23T05:53:11.555Z,11.78
2016-04-23T05:54:11.572Z,11.77
2016-04-23T05:55:11.607Z,11.73
2016-04-23T05:56:11.610Z,11.73
2016-04-23T05:57:11.643Z,11.73
2016-04-23T05:58:11.662Z,11.72
2016-04-23T05:59:11.680Z,11.7
2016-04-23T06:00:11.699Z,11.77
2016-04-23T06:01:11.732Z,11.78
2016-04-23T06:02:11.735Z,11.77
2016-04-23T06:03:11.612Z,11.8
2016-04-23T06:04:11.788Z,11.72
2016-04-23T06:05:11.790Z,11.69
2016-04-23T06:06:11.824Z,11.81
2016-04-23T06:07:11.843Z,11.83
2016-04-23T06:08:11.845Z,11.75
2016-04-23T06:09:11.879Z,11.81
2016-04-23T06:10:11.897Z,11.75
2016-04-23T06:11:11.915Z,11.75
2016-04-23T06:12:11.934Z,11.83
2016-04-23T06:13:11.952Z,11.83
2016-04-23T06:14:11.970Z,11.83
2016-04-23T06:15:11.989Z,11.84
2016-04-23T06:16:12.007Z,11.9
2016-04-23T06:17:12.025Z,11.86
2016-04-23T06:18:12.059Z,11.9
2016-04-23T06:19:12.077Z,11.87
2016-04-23T06:20:12.081Z,11.97
2016-04-23T06:21:12.100Z,11.95
2016-04-23T06:22:12.117Z,11.91
2016-04-23T06:23:12.151Z,11.97
2016-04-23T06:24:12.169Z,11.97
2016-04-23T06:25:12.188Z,12.07
2016-04-23T06:26:12.221Z,12.09
2016-04-23T06:27:12.224Z,12.04
2016-04-23T06:28:12.243Z,12.09
2016-04-23T06:29:12.277Z,12.06
2016-04-23T06:30:12.294Z,12.04
2016-04-23T06:31:12.313Z,12.09
2016-04-23T06:32:12.332Z,12.15
2016-04-23T06:33:12.349Z,12.18
2016-04-23T06:34:12.368Z,12.17
2016-04-23T06:35:12.386Z,12.2
2016-04-23T06:36:12.405Z,12.15
2016-04-23T06:37:12.424Z,12.22
2016-04-23T06:38:12.441Z,12.22
2016-04-23T06:39:12.460Z,12.24
2016-04-23T06:40:12.478Z,12.24
2016-04-23T06:41:12.496Z,12.32
2016-04-23T06:42:12.530Z,12.29
2016-04-23T06:43:12.548Z,12.28
2016-04-23T06:44:12.567Z,12.36
2016-04-23T06:45:12.585Z,12.45
2016-04-23T06:46:12.603Z,12.43
2016-04-23T06:47:12.622Z,12.39
2016-04-23T06:48:12.656Z,12.4
2016-04-23T06:49:11.908Z,12.47
2016-04-23T06:50:12.677Z,12.37
2016-04-23T06:51:12.710Z,12.58
2016-04-23T06:52:12.714Z,12.5
2016-04-23T06:53:12.748Z,12.47
2016-04-23T06:54:12.766Z,12.62
2016-04-23T06:55:12.784Z,12.58
2016-04-23T06:56:12.802Z,12.64
2016-04-23T06:57:12.821Z,12.61
2016-04-23T06:58:12.839Z,12.64
2016-04-23T06:59:12.857Z,12.65
2016-04-23T07:00:12.891Z,12.61
2016-04-23T07:01:12.894Z,12.64
2016-04-23T07:02:12.928Z,12.61
2016-04-23T07:03:12.946Z,12.6
2016-04-23T07:04:12.965Z,12.72
2016-04-23T07:05:13.092Z,12.68
2016-04-23T07:06:13.016Z,12.72
2016-04-23T07:07:13.018Z,12.62
2016-04-23T07:08:13.038Z,12.64
2016-04-23T07:09:13.057Z,12.68
2016-04-23T07:10:13.090Z,12.75
2016-04-23T07:11:13.109Z,12.79
2016-04-23T07:12:13.126Z,12.83
2016-04-23T07:13:13.145Z,12.8
2016-04-23T07:14:13.163Z,12.75
2016-04-23T07:15:13.197Z,12.78
2016-04-23T07:16:13.215Z,12.85
2016-04-23T07:17:13.218Z,12.85
2016-04-23T07:18:13.253Z,12.82
2016-04-23T07:19:13.270Z,12.83
2016-04-23T07:20:12.554Z,12.8
2016-04-23T07:21:13.322Z,12.9
2016-04-23T07:22:13.325Z,12.9
2016-04-23T07:23:13.359Z,12.93
2016-04-23T07:24:13.362Z,12.94
2016-04-23T07:25:13.396Z,12.98
2016-04-23T07:26:13.430Z,12.98
2016-04-23T07:27:13.432Z,13.04
2016-04-23T07:28:13.450Z,13.04
2016-04-23T07:29:13.516Z,13.04
2016-04-23T07:30:13.488Z,13.2
2016-04-23T07:31:13.505Z,13.22
2016-04-23T07:32:13.524Z,13.19
2016-04-23T07:33:13.558Z,13.19
2016-04-23T07:34:13.576Z,13.2
2016-04-23T07:35:13.594Z,13.27
2016-04-23T07:36:13.613Z,13.31
2016-04-23T07:37:13.647Z,13.35
2016-04-23T07:38:13.665Z,13.38
2016-04-23T07:39:13.668Z,13.42
2016-04-23T07:40:13.686Z,13.42
2016-04-23T07:41:13.752Z,13.47
2016-04-23T07:42:13.814Z,13.39
2016-04-23T07:43:13.877Z,13.53
2016-04-23T07:44:13.940Z,13.53
2016-04-23T07:45:14.017Z,13.59
2016-04-23T07:46:14.058Z,13.54
2016-04-23T07:47:14.092Z,13.6
2016-04-23T07:48:14.111Z,13.65
2016-04-23T07:49:14.161Z,13.75
2016-04-23T07:50:14.196Z,13.7
2016-04-23T07:51:14.223Z,13.68
2016-04-23T07:52:14.262Z,13.63
2016-04-23T07:53:14.271Z,13.72
2016-04-23T07:54:14.310Z,13.67
2016-04-23T07:55:14.334Z,13.78
2016-04-23T07:56:16.465Z,13.74
2016-04-23T07:57:14.376Z,13.77
2016-04-23T07:58:14.397Z,13.75
2016-04-23T07:59:14.432Z,13.78
2016-04-23T08:00:14.453Z,13.81
2016-04-23T08:01:14.456Z,13.78
2016-04-23T08:02:14.490Z,13.81
2016-04-23T08:03:14.510Z,13.77
2016-04-23T08:04:14.529Z,13.83
2016-04-23T08:05:14.549Z,13.92
2016-04-23T08:06:14.582Z,13.93
2016-04-23T08:07:14.602Z,13.97
2016-04-23T08:08:14.620Z,13.99
2016-04-23T08:09:14.638Z,13.97
2016-04-23T08:10:14.657Z,13.99
2016-04-23T08:11:14.597Z,14.07
2016-04-23T08:12:14.694Z,14.1
2016-04-23T08:13:14.728Z,14.11
2016-04-23T08:14:14.747Z,14.1
2016-04-23T08:15:14.780Z,14.1
2016-04-23T08:16:14.783Z,14.1
2016-04-23T08:17:14.800Z,14.05
2016-04-23T08:18:14.820Z,14.12
2016-04-23T08:19:14.853Z,14.07
2016-04-23T08:20:14.871Z,14.15
2016-04-23T08:21:16.999Z,14.2
2016-04-23T08:22:14.908Z,14.08
2016-04-23T08:23:14.927Z,14.17
2016-04-23T08:24:14.960Z,14.22
2016-04-23T08:25:14.980Z,14.18
2016-04-23T08:26:16.857Z,14.12
2016-04-23T08:27:15.032Z,14.25
2016-04-23T08:28:15.049Z,14.25
2016-04-23T08:29:15.068Z,14.2
2016-04-23T08:30:15.090Z,14.22
2016-04-23T08:31:15.110Z,14.28
2016-04-23T08:32:15.128Z,14.26
2016-04-23T08:33:15.162Z,14.36
2016-04-23T08:34:15.164Z,14.33
2016-04-23T08:35:15.198Z,14.36
2016-04-23T08:36:15.217Z,14.41
2016-04-23T08:37:15.234Z,14.45
2016-04-23T08:38:15.270Z,14.4
2016-04-23T08:39:15.272Z,14.43
2016-04-23T08:40:15.305Z,14.41
2016-04-23T08:41:15.324Z,14.37
2016-04-23T08:42:15.342Z,14.5
2016-04-23T08:43:15.360Z,14.5
2016-04-23T08:44:15.379Z,14.48
2016-04-23T08:45:15.397Z,14.45
2016-04-23T08:46:15.446Z,14.55
2016-04-23T08:47:15.449Z,14.5
2016-04-23T08:48:15.484Z,14.6
2016-04-23T08:49:15.502Z,14.62
2016-04-23T08:50:15.519Z,14.66
2016-04-23T08:51:15.539Z,14.69
2016-04-23T08:52:15.557Z,14.72
2016-04-23T08:53:15.574Z,14.77
2016-04-23T08:54:15.593Z,14.77
2016-04-23T08:55:15.611Z,14.77
2016-04-23T08:56:15.646Z,14.78
2016-04-23T08:57:15.696Z,14.73
2016-04-23T08:58:15.698Z,14.73
2016-04-23T08:59:15.810Z,14.78
2016-04-23T09:00:15.732Z,14.79
2016-04-23T09:01:15.749Z,14.78
2016-04-23T09:02:15.768Z,14.82
2016-04-23T09:03:15.787Z,14.84
2016-04-23T09:04:15.820Z,14.91
2016-04-23T09:05:15.870Z,14.92
2016-04-23T09:06:15.857Z,14.88
2016-04-23T09:07:15.876Z,15.06
2016-04-23T09:08:15.893Z,14.97
2016-04-23T09:09:15.928Z,14.99
2016-04-23T09:10:15.945Z,15.1
2016-04-23T09:11:15.964Z,15.1
2016-04-23T09:12:15.998Z,15.11
2016-04-23T09:13:16.017Z,15.15
2016-04-23T09:14:16.034Z,15.19
2016-04-23T09:15:16.053Z,15.27
2016-04-23T09:16:17.353Z,15.19
2016-04-23T09:17:16.121Z,15.31
2016-04-23T09:18:16.124Z,15.37
2016-04-23T09:19:16.158Z,15.33
2016-04-23T09:20:16.161Z,15.42
2016-04-23T09:21:22.494Z,15.44
2016-04-23T09:22:16.197Z,15.47
2016-04-23T09:23:16.230Z,15.51
2016-04-23T09:24:16.265Z,15.55
2016-04-23T09:25:16.283Z,15.64
2016-04-23T09:26:16.302Z,15.61
2016-04-23T09:27:16.180Z,15.58
2016-04-23T09:28:16.338Z,15.68
2016-04-23T09:29:16.449Z,15.68
2016-04-23T09:30:16.391Z,15.72
2016-04-23T09:31:16.409Z,15.82
2016-04-23T09:32:17.396Z,15.68
2016-04-23T09:33:16.461Z,15.79
2016-04-23T09:34:16.479Z,15.79
2016-04-23T09:35:16.888Z,15.82
2016-04-23T09:36:16.516Z,15.79
2016-04-23T09:37:16.550Z,15.77
2016-04-23T09:38:16.568Z,15.83
2016-04-23T09:39:16.601Z,15.82
2016-04-23T09:40:16.620Z,15.79
2016-04-23T09:41:16.451Z,15.77
2016-04-23T09:42:17.970Z,15.86
2016-04-23T09:43:16.675Z,15.91
2016-04-23T09:44:16.694Z,15.9
2016-04-23T09:45:17.056Z,15.95
2016-04-23T09:46:16.745Z,15.97
2016-04-23T09:47:16.764Z,15.97
2016-04-23T09:48:16.783Z,15.94
2016-04-23T09:49:16.833Z,15.98
2016-04-23T09:50:16.836Z,16.1
2016-04-23T09:51:16.853Z,16.1
2016-04-23T09:52:16.747Z,16.16
2016-04-23T09:53:16.905Z,16.12
2016-04-23T09:54:16.924Z,16.2
2016-04-23T09:55:16.942Z,16.23
2016-04-23T09:56:16.976Z,16.33
2016-04-23T09:57:17.494Z,16.28
2016-04-23T09:58:17.013Z,16.33
2016-04-23T09:59:17.030Z,16.38
2016-04-23T10:00:17.065Z,16.42
2016-04-23T10:01:17.083Z,16.57
2016-04-23T10:02:17.118Z,16.57
2016-04-23T10:03:17.136Z,16.51
2016-04-23T10:04:17.154Z,16.58
2016-04-23T10:05:17.187Z,16.57
2016-04-23T10:06:17.206Z,16.61
2016-04-23T10:07:17.224Z,16.65
2016-04-23T10:08:17.243Z,16.58
2016-04-23T10:09:17.261Z,16.58
2016-04-23T10:10:17.248Z,16.65
2016-04-23T10:11:17.313Z,16.64
2016-04-23T10:12:17.347Z,16.54
2016-04-23T10:13:17.365Z,16.64
2016-04-23T10:14:17.384Z,16.58
2016-04-23T10:15:17.995Z,16.58
2016-04-23T10:16:18.092Z,16.54
2016-04-23T10:17:18.658Z,16.56
2016-04-23T10:18:17.472Z,16.54
2016-04-23T10:19:17.334Z,16.57
2016-04-23T10:20:17.541Z,16.56
2016-04-23T10:21:17.559Z,16.54
2016-04-23T10:22:17.561Z,16.57
2016-04-23T10:23:17.594Z,16.56
2016-04-23T10:24:17.617Z,16.56
2016-04-23T10:25:17.636Z,16.54
2016-04-23T10:26:17.653Z,16.51
2016-04-23T10:27:17.688Z,16.54
2016-04-23T10:28:17.705Z,16.61
2016-04-23T10:29:17.724Z,16.56
2016-04-23T10:30:17.758Z,16.64
2016-04-23T10:31:17.026Z,16.64
2016-04-23T10:32:17.794Z,16.61
2016-04-23T10:33:17.829Z,16.74
2016-04-23T10:34:18.066Z,16.74
2016-04-23T10:35:17.709Z,16.79
2016-04-23T10:36:17.883Z,16.83
2016-04-23T10:37:17.917Z,16.79
2016-04-23T10:38:17.935Z,16.9
2016-04-23T10:39:17.954Z,16.87
2016-04-23T10:40:17.987Z,16.97
2016-04-23T10:41:18.006Z,16.99
2016-04-23T10:42:18.040Z,17.01
2016-04-23T10:43:18.043Z,17.11
2016-04-23T10:44:18.092Z,17.12
2016-04-23T10:45:18.111Z,17.06
2016-04-23T10:46:18.129Z,16.97
2016-04-23T10:47:18.163Z,16.99
2016-04-23T10:48:18.197Z,17.04
2016-04-23T10:49:18.200Z,17.08
2016-04-23T10:50:18.671Z,17.09
2016-04-23T10:51:18.237Z,17.16
2016-04-23T10:52:18.270Z,17.09
2016-04-23T10:53:18.304Z,17.15
2016-04-23T10:54:18.322Z,17.19
2016-04-23T10:55:18.342Z,17.15
2016-04-23T10:56:18.359Z,17.15
2016-04-23T10:57:18.393Z,17.19
2016-04-23T10:58:18.411Z,17.19
2016-04-23T10:59:18.445Z,17.22
2016-04-23T11:00:18.480Z,17.26
2016-04-23T11:01:18.482Z,17.2
2016-04-23T11:02:18.516Z,17.24
2016-04-23T11:03:18.518Z,17.27
2016-04-23T11:04:18.443Z,17.36
2016-04-23T11:05:18.415Z,17.36
2016-04-23T11:06:18.605Z,17.48
2016-04-23T11:07:18.624Z,17.45
2016-04-23T11:08:18.641Z,17.54
2016-04-23T11:09:18.676Z,17.49
2016-04-23T11:10:18.693Z,17.54
2016-04-23T11:11:18.727Z,17.54
2016-04-23T11:12:18.762Z,17.52
2016-04-23T11:13:18.765Z,17.51
2016-04-23T11:14:18.783Z,17.56
2016-04-23T11:15:18.800Z,17.49
2016-04-23T11:16:18.834Z,17.56
2016-04-23T11:17:18.868Z,17.48
2016-04-23T11:18:18.887Z,17.48
2016-04-23T11:19:19.109Z,17.57
2016-04-23T11:20:20.174Z,17.45
2016-04-23T11:21:18.942Z,17.44
2016-04-23T11:22:18.992Z,17.49
2016-04-23T11:23:19.009Z,17.49
2016-04-23T11:24:19.044Z,17.52
2016-04-23T11:25:19.062Z,17.52
2016-04-23T11:26:19.064Z,17.45
2016-04-23T11:27:19.099Z,17.34
2016-04-23T11:28:19.117Z,17.29
2016-04-23T11:29:19.151Z,17.41
2016-04-23T11:30:19.169Z,17.31
2016-04-23T11:31:19.188Z,17.36
2016-04-23T11:32:19.222Z,17.38
2016-04-23T11:33:19.240Z,17.42
2016-04-23T11:34:19.852Z,17.46
2016-04-23T11:35:19.339Z,17.34
2016-04-23T11:36:19.311Z,17.51
2016-04-23T11:37:19.360Z,17.48
2016-04-23T11:38:19.347Z,17.54
2016-04-23T11:39:19.397Z,17.52
2016-04-23T11:40:19.415Z,17.54
2016-04-23T11:41:19.449Z,17.46
2016-04-23T11:42:19.451Z,17.51
2016-04-23T11:43:19.485Z,17.57
2016-04-23T11:44:19.504Z,17.56
2016-04-23T11:45:19.523Z,17.52
2016-04-23T11:46:19.572Z,17.6
2016-04-23T11:47:19.590Z,17.57
2016-04-23T11:48:19.608Z,17.57
2016-04-23T11:49:19.830Z,17.67
2016-04-23T11:50:19.645Z,17.64
2016-04-23T11:51:19.664Z,17.65
2016-04-23T11:52:19.713Z,17.65
2016-04-23T11:53:19.732Z,17.74
2016-04-23T11:54:19.750Z,17.67
2016-04-23T11:55:19.767Z,17.72
2016-04-23T11:56:19.802Z,17.65
2016-04-23T11:57:19.820Z,17.71
2016-04-23T11:58:19.854Z,17.74
2016-04-23T11:59:19.856Z,17.74
2016-04-23T12:00:19.906Z,17.79
2016-04-23T12:01:19.909Z,17.72
2016-04-23T12:02:19.944Z,17.83
2016-04-23T12:03:19.961Z,17.85
2016-04-23T12:04:20.042Z,17.95
2016-04-23T12:05:20.279Z,17.87
2016-04-23T12:06:20.032Z,17.94
2016-04-23T12:07:20.066Z,18.01
2016-04-23T12:08:20.100Z,17.97
2016-04-23T12:09:20.118Z,17.97
2016-04-23T12:10:20.168Z,18.08
2016-04-23T12:11:20.155Z,18.05
2016-04-23T12:12:20.204Z,18.03
2016-04-23T12:13:20.207Z,18.08
2016-04-23T12:14:20.256Z,18.04
2016-04-23T12:15:20.274Z,18.19
2016-04-23T12:16:20.293Z,18.18
2016-04-23T12:17:20.312Z,18.11
2016-04-23T12:18:20.329Z,18.11
2016-04-23T12:19:20.348Z,18.07
2016-04-23T12:20:20.241Z,18.1
2016-04-23T12:21:20.401Z,18.13
2016-04-23T12:22:20.450Z,18.04
2016-04-23T12:23:20.453Z,18.11
2016-04-23T12:24:20.486Z,18.11
2016-04-23T12:25:20.520Z,18.05
2016-04-23T12:26:20.539Z,18.18
2016-04-23T12:27:20.557Z,18.15
2016-04-23T12:28:20.607Z,18.08
2016-04-23T12:29:20.609Z,18.18
2016-04-23T12:30:20.627Z,18.08
2016-04-23T12:31:20.646Z,18.13
2016-04-23T12:32:20.680Z,18.18
2016-04-23T12:33:20.698Z,18.15
2016-04-23T12:34:20.733Z,18.19
2016-04-23T12:35:20.641Z,18.18
2016-04-23T12:36:20.769Z,18.15
2016-04-23T12:37:20.819Z,18.15
2016-04-23T12:38:20.821Z,18.13
2016-04-23T12:39:20.839Z,18.23
2016-04-23T12:40:20.873Z,18.22
2016-04-23T12:41:20.891Z,18.23
2016-04-23T12:42:20.926Z,18.26
2016-04-23T12:43:20.944Z,18.33
2016-04-23T12:44:20.962Z,18.29
2016-04-23T12:45:21.012Z,18.25
2016-04-23T12:46:21.015Z,18.2
2016-04-23T12:47:21.065Z,18.31
2016-04-23T12:48:21.082Z,18.23
2016-04-23T12:49:21.101Z,18.19
2016-04-23T12:50:20.837Z,18.16
2016-04-23T12:51:21.137Z,18.23
2016-04-23T12:52:21.171Z,18.22
2016-04-23T12:53:21.190Z,18.18
2016-04-23T12:54:21.239Z,18.18
2016-04-23T12:55:21.257Z,18.22